Time;durP1;ratioP1;P1;durP2;ratioP2;P2;SDS_P1;SDS_P2;PMS_P1;PMS_P2;Temp;Humidity;BMP_temperature;BMP_pressure;BME280_temperature;BME280_humidity;BME280_pressure;Samples;Min_cycle;Max_cycle;Signal;HPM_P1;HPM_P2
2023/06/22 00:00:50;;;;;;;34.22;28.17;;;;;;;16.38;100.00;101792.88;4988789;28;20129;-50
2023/06/22 00:03:17;;;;;;;36.88;28.35;;;;;;;16.71;100.00;101866.81;5012612;28;20114;-48
2023/06/22 00:05:42;;;;;;;35.30;27.63;;;;;;;16.33;100.00;101799.28;5012479;28;20046;-51
2023/06/22 00:08:07;;;;;;;36.30;29.13;;;;;;;16.70;100.00;101864.22;4978671;28;20056;-49
2023/06/22 00:10:33;;;;;;;34.20;29.52;;;;;;;16.32;100.00;101794.88;5012441;28;20044;-52
2023/06/22 00:12:58;;;;;;;36.42;29.77;;;;;;;16.69;100.00;101857.19;5012305;28;20037;-49
2023/06/22 00:15:24;;;;;;;36.60;30.75;;;;;;;16.64;100.00;101856.50;5012380;28;20041;-51
2023/06/22 00:17:50;;;;;;;38.10;31.05;;;;;;;16.58;100.00;101846.97;5011071;28;20041;-51
2023/06/22 00:20:16;;;;;;;39.45;31.20;;;;;;;16.14;100.00;101777.03;5006045;28;20060;-52
2023/06/22 00:22:42;;;;;;;43.80;30.45;;;;;;;16.20;100.00;101791.84;4995041;28;20080;-51
2023/06/22 00:25:08;;;;;;;40.58;31.48;;;;;;;16.53;100.00;101850.72;4995233;28;20034;-48
2023/06/22 00:27:34;;;;;;;37.45;30.05;;;;;;;16.18;100.00;101783.06;5012377;28;20036;-52
2023/06/22 00:29:59;;;;;;;41.90;31.48;;;;;;;16.52;100.00;101857.00;5013401;28;20949;-49
2023/06/22 00:32:25;;;;;;;38.05;31.25;;;;;;;16.52;100.00;101854.34;4998655;28;20041;-47
2023/06/22 00:34:50;;;;;;;39.75;31.17;;;;;;;16.12;100.00;101784.19;5015151;28;20045;-50
2023/06/22 00:37:15;;;;;;;43.78;32.55;;;;;;;16.47;100.00;101837.69;5016040;28;20042;-49
2023/06/22 00:39:42;;;;;;;38.22;30.98;;;;;;;16.50;100.00;101846.41;5016158;28;20041;-52
2023/06/22 00:42:08;;;;;;;42.35;33.08;;;;;;;16.09;100.00;101775.47;5016073;28;20030;-49
2023/06/22 00:44:33;;;;;;;40.88;31.40;;;;;;;16.47;100.00;101837.69;5015723;28;20040;-49
2023/06/22 00:47:00;;;;;;;43.05;33.70;;;;;;;16.03;100.00;101768.63;5016080;28;20489;-50
2023/06/22 00:49:25;;;;;;;41.95;34.42;;;;;;;16.44;100.00;101837.81;4998614;28;20084;-51
2023/06/22 00:51:51;;;;;;;46.08;35.88;;;;;;;16.14;100.00;101779.69;4997464;28;20448;-49
2023/06/22 00:54:16;;;;;;;51.65;35.58;;;;;;;16.46;100.00;101830.66;5015762;28;20034;-49
2023/06/22 00:56:42;;;;;;;46.40;35.92;;;;;;;16.42;100.00;101818.41;5016002;28;20113;-49
2023/06/22 00:59:12;;;;;;;48.00;36.13;;;;;;;15.94;100.00;101752.19;5015599;28;20038;-50
2023/06/22 01:01:41;;;;;;;48.97;34.42;;;;;;;16.42;100.00;101832.56;5015999;28;20044;-51
2023/06/22 01:04:06;;;;;;;51.13;37.17;;;;;;;16.38;100.00;101824.78;5015868;28;20053;-48
2023/06/22 01:06:38;;;;;;;53.67;37.72;;;;;;;16.42;100.00;101819.28;5015746;28;20592;-50
2023/06/22 01:09:15;;;;;;;53.83;38.15;;;;;;;16.43;100.00;101823.69;4997129;28;20120;-51
2023/06/22 01:12:02;;;;;;;52.63;38.10;;;;;;;16.44;100.00;101824.53;4998666;28;20301;-50
2023/06/22 01:14:47;;;;;;;56.92;38.58;;;;;;;16.44;100.00;101836.03;5015864;28;20464;-49
2023/06/22 01:17:16;;;;;;;56.72;38.80;;;;;;;16.39;100.00;101831.81;4997954;28;20109;-49
2023/06/22 01:19:46;;;;;;;56.22;38.95;;;;;;;16.38;100.00;101840.72;4997955;28;20030;-50
2023/06/22 01:22:15;;;;;;;55.65;40.20;;;;;;;16.26;100.00;101816.38;5015164;28;20038;-51
2023/06/22 01:24:50;;;;;;;57.90;40.38;;;;;;;16.34;100.00;101827.56;4998071;28;20034;-51
2023/06/22 01:27:46;;;;;;;56.95;40.10;;;;;;;16.36;100.00;101831.94;5014175;28;20038;-50
2023/06/22 01:30:15;;;;;;;56.47;41.38;;;;;;;16.33;100.00;101815.22;5014847;28;20125;-53
2023/06/22 01:32:40;;;;;;;58.25;40.42;;;;;;;16.30;100.00;101825.09;4997634;28;20037;-52
2023/06/22 01:35:07;;;;;;;53.92;38.00;;;;;;;15.52;100.00;101689.28;4997445;28;20054;-54
2023/06/22 01:37:35;;;;;;;55.58;40.13;;;;;;;16.11;100.00;101803.69;4997578;28;20053;-54
2023/06/22 01:40:01;;;;;;;55.28;38.58;;;;;;;16.24;100.00;101817.38;4997777;28;20040;-52
2023/06/22 01:42:26;;;;;;;56.80;40.55;;;;;;;16.10;100.00;101791.38;4995952;28;20037;-50
2023/06/22 01:44:55;;;;;;;61.25;40.20;;;;;;;16.04;100.00;101780.13;4993692;28;20111;-49
2023/06/22 01:47:24;;;;;;;58.95;41.33;;;;;;;16.19;100.00;101809.59;4978083;28;20393;-51
2023/06/22 01:49:51;;;;;;;54.63;39.70;;;;;;;15.82;100.00;101755.34;4978012;28;20097;-50
2023/06/22 01:52:17;;;;;;;62.42;41.30;;;;;;;15.88;100.00;101765.75;4978087;28;20039;-48
2023/06/22 01:54:42;;;;;;;57.95;38.72;;;;;;;16.13;100.00;101817.81;4995325;28;20042;-49
2023/06/22 01:57:09;;;;;;;56.67;38.65;;;;;;;15.71;100.00;101750.44;4995079;28;20042;-54
2023/06/22 02:00:00;;;;;;;56.88;39.72;;;;;;;16.08;100.00;101821.56;5006137;28;20042;-50
2023/06/22 02:02:29;;;;;;;56.40;39.92;;;;;;;15.65;100.00;101743.59;5014499;28;20437;-49
2023/06/22 02:04:59;;;;;;;57.13;40.20;;;;;;;16.10;100.00;101806.44;5014543;28;20034;-50
2023/06/22 02:07:29;;;;;;;54.50;38.80;;;;;;;15.72;100.00;101755.72;5014450;28;20038;-54
2023/06/22 02:09:56;;;;;;;57.95;41.60;;;;;;;15.62;100.00;101734.88;4996675;28;20033;-48
2023/06/22 02:12:23;;;;;;;57.92;39.80;;;;;;;16.01;100.00;101805.00;4997001;28;20045;-48
2023/06/22 02:14:49;;;;;;;57.60;40.75;;;;;;;15.64;100.00;101749.81;4996557;28;20034;-50
2023/06/22 02:17:17;;;;;;;56.40;40.30;;;;;;;15.91;100.00;101795.66;4995769;28;20033;-48
2023/06/22 02:19:42;;;;;;;55.42;40.08;;;;;;;15.64;100.00;101762.25;5014356;28;20452;-48
2023/06/22 02:22:07;;;;;;;55.80;40.78;;;;;;;15.89;100.00;101804.63;5014384;28;20041;-48
2023/06/22 02:24:33;;;;;;;55.97;39.50;;;;;;;15.86;100.00;101810.03;5014026;28;20500;-48
2023/06/22 02:26:59;;;;;;;66.82;45.88;;;;;;;15.52;100.00;101742.34;5014102;28;20037;-49
2023/06/22 02:29:27;;;;;;;68.40;46.85;;;;;;;15.84;100.00;101785.34;4996745;28;20034;-47
2023/06/22 02:31:52;;;;;;;62.95;45.22;;;;;;;16.01;100.00;101817.41;5012986;28;20034;-49
2023/06/22 02:34:18;;;;;;;67.75;47.33;;;;;;;15.91;100.00;101784.16;5013899;28;20097;-47
2023/06/22 02:36:51;;;;;;;70.30;47.78;;;;;;;15.63;100.00;101744.59;5013337;28;20096;-48
2023/06/22 02:39:25;;;;;;;70.32;47.63;;;;;;;15.96;100.00;101804.34;5013777;28;20081;-48
2023/06/22 02:41:51;;;;;;;71.40;49.22;;;;;;;15.56;100.00;101727.16;5014108;28;20034;-50
2023/06/22 02:44:16;;;;;;;69.13;46.33;;;;;;;15.83;100.00;101779.19;5013839;28;20443;-51
2023/06/22 02:46:42;;;;;;;69.72;46.97;;;;;;;15.95;100.00;101802.59;5013314;28;20034;-49
2023/06/22 02:49:07;;;;;;;70.88;48.13;;;;;;;15.96;100.00;101804.34;4996953;28;20034;-50
2023/06/22 02:51:34;;;;;;;70.60;48.35;;;;;;;15.85;100.00;101789.75;4976858;28;20038;-49
2023/06/22 02:53:59;;;;;;;76.38;48.42;;;;;;;15.90;100.00;101801.91;4992834;28;20038;-49
2023/06/22 02:56:24;;;;;;;74.55;49.45;;;;;;;15.56;100.00;101740.44;4994181;28;20089;-51
2023/06/22 02:58:50;;;;;;;69.03;48.03;;;;;;;15.84;100.00;101794.19;4994045;28;20066;-50
2023/06/22 03:01:15;;;;;;;80.53;50.53;;;;;;;15.52;100.00;101742.34;4993933;28;20034;-49
2023/06/22 03:03:41;;;;;;;83.22;52.20;;;;;;;15.45;100.00;101734.63;4994219;28;20045;-49
2023/06/22 03:06:06;;;;;;;78.15;52.50;;;;;;;15.86;100.00;101802.94;5008666;28;20034;-52
2023/06/22 03:08:31;;;;;;;85.07;52.97;;;;;;;15.87;100.00;101817.09;5013201;28;20034;-51
2023/06/22 03:10:57;;;;;;;79.03;51.95;;;;;;;15.86;100.00;101810.03;5013450;28;20092;-52
2023/06/22 03:13:23;;;;;;;80.22;51.80;;;;;;;15.72;100.00;101799.97;5012920;28;20030;-51
2023/06/22 03:15:48;;;;;;;74.57;50.42;;;;;;;15.67;100.00;101801.94;4979711;28;20034;-53
2023/06/22 03:18:15;;;;;;;78.57;51.97;;;;;;;15.69;100.00;101806.25;5013069;28;20046;-49
2023/06/22 03:20:40;;;;;;;77.28;50.40;;;;;;;15.68;100.00;101793.03;5013277;28;20037;-48
2023/06/22 03:23:06;;;;;;;83.28;53.30;;;;;;;15.69;100.00;101785.03;5011482;28;20030;-49
2023/06/22 03:25:31;;;;;;;81.18;52.72;;;;;;;15.66;100.00;101771.00;4995908;28;20022;-49
2023/06/22 03:27:56;;;;;;;81.90;53.22;;;;;;;15.38;100.00;101725.19;5013239;28;20041;-51
2023/06/22 03:30:22;;;;;;;82.22;53.53;;;;;;;15.17;100.00;101692.41;5013347;28;20030;-54
2023/06/22 03:32:47;;;;;;;83.63;53.60;;;;;;;15.27;100.00;101714.09;5012896;28;20497;-53
2023/06/22 03:35:13;;;;;;;84.18;51.75;;;;;;;15.64;100.00;101775.53;4995302;28;20041;-48
2023/06/22 03:37:39;;;;;;;82.07;53.72;;;;;;;15.50;100.00;101765.41;5012610;28;20045;-50
2023/06/22 03:40:05;;;;;;;94.28;56.47;;;;;;;15.63;100.00;101779.09;5012228;28;20030;-50
2023/06/22 03:42:30;;;;;;;91.35;55.75;;;;;;;15.64;100.00;101792.28;5012984;28;20120;-51
2023/06/22 03:44:56;;;;;;;94.32;55.58;;;;;;;15.65;100.00;101793.16;5012955;28;20121;-49
2023/06/22 03:47:22;;;;;;;92.20;53.03;;;;;;;15.63;100.00;101777.31;5012318;28;20038;-53
2023/06/22 03:49:47;;;;;;;89.35;54.53;;;;;;;15.68;100.00;101785.06;4995300;28;20041;-52
2023/06/22 03:52:13;;;;;;;90.28;53.80;;;;;;;15.28;100.00;101705.25;5012690;28;20042;-49
2023/06/22 03:54:38;;;;;;;85.40;52.67;;;;;;;15.69;100.00;101776.19;5012605;28;20038;-47
2023/06/22 03:57:04;;;;;;;87.75;54.15;;;;;;;15.30;100.00;101714.88;5012159;28;20042;-52
2023/06/22 03:59:29;;;;;;;82.90;53.50;;;;;;;15.26;100.00;101709.75;5012675;28;20112;-51
2023/06/22 04:01:54;;;;;;;80.13;51.45;;;;;;;15.27;100.00;101704.38;4995221;28;20034;-51
2023/06/22 04:04:20;;;;;;;83.22;52.55;;;;;;;15.48;100.00;101740.72;4994130;28;20038;-50
2023/06/22 04:06:46;;;;;;;84.32;52.92;;;;;;;15.66;100.00;101760.38;5012830;28;20096;-52
2023/06/22 04:09:12;;;;;;;78.57;52.65;;;;;;;15.29;100.00;101696.38;5012609;28;20465;-51
2023/06/22 04:11:37;;;;;;;82.47;51.25;;;;;;;15.69;100.00;101769.09;5012362;28;20227;-50
2023/06/22 04:14:02;;;;;;;78.43;51.22;;;;;;;15.71;100.00;101763.72;4993952;28;20121;-49
2023/06/22 04:16:28;;;;;;;83.82;52.67;;;;;;;15.72;100.00;101770.78;5012502;28;20040;-50
2023/06/22 04:18:53;;;;;;;84.60;53.10;;;;;;;15.67;100.00;101741.72;4994162;28;20400;-49
2023/06/22 04:21:21;;;;;;;75.07;50.72;;;;;;;15.81;100.00;101770.41;5012165;28;20038;-51
2023/06/22 04:23:47;;;;;;;79.82;50.67;;;;;;;15.85;100.00;101771.16;5012713;28;20076;-52
2023/06/22 04:26:14;;;;;;;78.70;52.38;;;;;;;15.49;100.00;101710.63;5012564;28;20065;-49
2023/06/22 04:28:39;;;;;;;81.38;51.30;;;;;;;15.86;100.00;101773.75;4994623;28;20037;-48
2023/06/22 04:31:05;;;;;;;79.30;51.67;;;;;;;15.98;100.00;101777.72;5010524;28;20084;-55
2023/06/22 04:33:30;;;;;;;82.75;53.15;;;;;;;15.99;100.00;101771.47;5009972;28;20056;-53
2023/06/22 04:36:01;;;;;;;81.13;53.90;;;;;;;15.70;100.00;101709.75;5012148;28;20061;-52
2023/06/22 04:38:26;;;;;;;76.32;49.13;;;;;;;16.11;100.00;101786.94;5012005;28;20044;-50
2023/06/22 04:40:53;;;;;;;78.03;52.17;;;;;;;15.74;100.00;101714.03;4994812;28;20037;-51
2023/06/22 04:43:18;;;;;;;79.55;52.88;;;;;;;16.16;100.00;101782.28;5012128;28;20518;-53
2023/06/22 04:45:44;;;;;;;74.50;51.88;;;;;;;15.82;100.00;101707.56;5011208;28;20029;-47
2023/06/22 04:48:09;;;;;;;74.32;50.13;;;;;;;15.93;100.00;101711.53;5011605;28;20040;-50
2023/06/22 04:50:37;;;;;;;70.70;49.50;;;;;;;15.95;100.00;101690.19;5012018;28;20532;-51
2023/06/22 04:53:05;;;;;;;70.28;47.60;;;;;;;16.55;100.00;101790.44;5012035;28;20061;-48
2023/06/22 04:55:31;;;;;;;68.57;46.80;;;;;;;16.27;100.00;101711.84;5012204;28;20069;-50
2023/06/22 04:58:04;;;;;;;63.30;44.97;;;;;;;16.67;100.00;101774.81;5011932;28;20038;-48
2023/06/22 05:00:29;;;;;;;59.58;45.25;;;;;;;16.35;100.00;101703.53;5012051;28;20034;-52
2023/06/22 05:02:56;;;;;;;62.47;44.55;;;;;;;16.79;100.00;101773.44;4993206;28;20529;-50
2023/06/22 05:05:22;;;;;;;58.92;43.55;;;;;;;16.40;100.00;101708.69;5011744;28;20045;-50
2023/06/22 05:07:50;;;;;;;52.25;41.35;;;;;;;16.90;100.00;101780.97;4994450;28;20453;-50
2023/06/22 05:10:16;;;;;;;56.63;41.78;;;;;;;16.52;100.00;101701.03;5011938;28;20382;-50
2023/06/22 05:12:41;;;;;;;53.42;42.40;;;;;;;16.59;100.00;101701.66;5011780;28;20037;-50
2023/06/22 05:15:07;;;;;;;53.92;39.35;;;;;;;17.05;100.00;101758.97;5011539;28;20121;-52
2023/06/22 05:17:33;;;;;;;48.45;37.72;;;;;;;17.05;100.00;101737.72;4997709;28;20076;-49
2023/06/22 05:19:59;;;;;;;48.17;37.75;;;;;;;16.86;100.00;101698.66;5014638;28;20053;-51
2023/06/22 05:22:24;;;;;;;47.13;36.88;;;;;;;17.37;100.00;101761.94;5015434;28;20037;-51
2023/06/22 05:24:49;;;;;;;41.08;32.75;;;;;;;17.04;100.00;101685.47;5015465;28;20029;-52
2023/06/22 05:27:15;;;;;;;45.97;35.58;;;;;;;17.69;100.00;101757.78;5015184;28;20053;-51
2023/06/22 05:29:40;;;;;;;41.80;32.35;;;;;;;17.35;100.00;101688.41;5015488;28;20045;-53
2023/06/22 05:32:06;;;;;;;43.38;33.67;;;;;;;17.85;100.00;101760.59;5015144;28;20121;-51
2023/06/22 05:34:32;;;;;;;40.28;32.58;;;;;;;17.50;100.00;101689.50;5014731;28;20045;-51
2023/06/22 05:36:58;;;;;;;41.42;32.28;;;;;;;17.97;100.00;101765.34;4997471;28;20520;-49
2023/06/22 05:39:24;;;;;;;40.78;32.03;;;;;;;17.98;100.00;101759.94;5014440;28;20037;-52
2023/06/22 05:41:49;;;;;;;41.47;32.10;;;;;;;17.67;100.00;101700.22;4997449;28;20034;-52
2023/06/22 05:44:15;;;;;;;42.45;32.50;;;;;;;18.00;100.00;101757.19;4996912;28;20030;-51
2023/06/22 05:46:44;;;;;;;38.20;32.17;;;;;;;18.04;100.00;101758.75;4997325;28;20042;-53
2023/06/22 05:49:10;;;;;;;39.85;33.10;;;;;;;17.68;100.00;101691.31;4997782;28;20048;-53
2023/06/22 05:51:36;;;;;;;38.05;30.95;;;;;;;18.20;100.00;101766.88;4997272;28;20038;-53
2023/06/22 05:54:01;;;;;;;38.30;31.20;;;;;;;17.90;100.00;101699.97;5014869;28;20040;-53
2023/06/22 05:56:26;;;;;;;37.65;32.00;;;;;;;18.19;100.00;101742.03;5013457;28;20065;-54
2023/06/22 05:58:51;;;;;;;41.05;34.13;;;;;;;17.92;100.00;101695.47;5013998;28;20042;-50
2023/06/22 06:01:17;;;;;;;38.28;31.60;;;;;;;17.91;100.00;101673.28;5014423;28;20474;-51
2023/06/22 06:03:42;;;;;;;37.08;31.42;;;;;;;18.10;100.00;101689.19;5014709;28;20469;-49
2023/06/22 06:06:08;;;;;;;40.08;30.05;;;;;;;18.50;100.00;101706.75;5014497;28;20113;-49
2023/06/22 06:08:33;;;;;;;35.38;28.35;;;;;;;18.57;100.00;101677.94;5014505;28;20034;-50
2023/06/22 06:10:58;;;;;;;33.85;28.80;;;;;;;18.81;100.00;101676.66;5014688;28;20037;-49
2023/06/22 06:13:24;;;;;;;29.10;25.58;;;;;;;19.13;100.00;101685.59;5012920;28;20042;-53
2023/06/22 06:15:51;;;;;;;29.67;24.63;;;;;;;19.71;100.00;101755.34;5014286;28;20037;-49
2023/06/22 06:18:16;;;;;;;25.83;23.13;;;;;;;19.96;100.00;101755.72;5014630;28;20111;-50
2023/06/22 06:20:42;;;;;;;23.02;20.63;;;;;;;19.80;100.00;101696.06;5014630;28;20473;-49
2023/06/22 06:23:07;;;;;;;22.42;20.02;;;;;;;20.34;100.00;101762.44;5014367;28;20042;-52
2023/06/22 06:25:32;;;;;;;20.30;18.20;;;;;;;19.99;100.00;101705.59;5014200;28;20061;-48
2023/06/22 06:27:58;;;;;;;19.52;17.52;;;;;;;20.03;100.00;101715.19;5012418;28;20030;-54
2023/06/22 06:30:23;;;;;;;17.95;16.17;;;;;;;20.46;100.00;101759.00;4996502;28;20132;-51
2023/06/22 06:32:49;;;;;;;21.50;18.17;;;;;;;20.10;100.00;101707.69;5014202;28;20033;-52
2023/06/22 06:35:18;;;;;;;19.27;17.20;;;;;;;20.38;100.00;101774.66;5013757;28;20080;-52
2023/06/22 06:37:45;;;;;;;17.98;16.08;;;;;;;20.47;100.00;101774.13;5013044;28;20133;-49
2023/06/22 06:40:12;;;;;;;18.17;16.25;;;;;;;20.52;100.00;101747.13;5014170;28;20424;-51
2023/06/22 06:42:40;;;;;;;19.38;17.27;;;;;;;20.49;100.00;101749.97;5013986;28;20126;-49
2023/06/22 06:45:06;;;;;;;19.50;17.45;;;;;;;20.75;100.00;101771.50;5012463;28;20034;-55
2023/06/22 06:47:31;;;;;;;19.63;17.58;;;;;;;20.38;100.00;101707.78;4996631;28;20070;-51
2023/06/22 06:49:57;;;;;;;16.50;14.75;;;;;;;20.77;100.00;101747.34;5014084;28;20452;-54
2023/06/22 06:52:22;;;;;;;16.63;14.88;;;;;;;20.87;100.00;101766.41;4996071;28;20046;-51
2023/06/22 06:54:48;;;;;;;18.17;14.45;;;;;;;20.99;100.00;101765.63;5013635;28;20034;-49
2023/06/22 06:57:14;;;;;;;15.80;14.23;;;;;;;20.89;100.00;101757.31;5013641;28;20488;-50
2023/06/22 06:59:40;;;;;;;15.10;13.60;;;;;;;20.61;100.00;101714.44;5013498;28;20152;-53
2023/06/22 07:02:05;;;;;;;19.67;15.23;;;;;;;20.88;100.00;101750.25;4995436;28;20644;-54
2023/06/22 07:04:31;;;;;;;14.20;12.65;;;;;;;21.14;100.00;101760.25;5010879;28;20037;-51
2023/06/22 07:06:56;;;;;;;15.25;13.65;;;;;;;21.34;100.00;101776.91;5011831;28;20041;-50
2023/06/22 07:09:21;;;;;;;13.65;12.18;;;;;;;21.35;100.00;101754.50;4994439;28;20042;-52
2023/06/22 07:11:46;;;;;;;12.88;11.13;;;;;;;21.17;100.00;101713.66;5010956;28;20095;-52
2023/06/22 07:14:12;;;;;;;12.77;11.48;;;;;;;21.54;100.00;101779.19;5011530;28;20105;-52
2023/06/22 07:16:37;;;;;;;14.15;11.25;;;;;;;21.64;100.00;101764.22;5011871;28;20037;-54
2023/06/22 07:19:02;;;;;;;14.02;11.63;;;;;;;21.81;100.00;101767.56;5011552;28;20375;-54
2023/06/22 07:21:28;;;;;;;11.52;10.40;;;;;;;21.67;100.00;101691.69;5009691;28;20038;-51
2023/06/22 07:23:54;;;;;;;10.82;9.77;;;;;;;21.83;100.00;101751.41;5011133;28;20045;-54
2023/06/22 07:26:19;;;;;;;11.07;9.40;;;;;;;22.08;100.00;101761.38;5010990;28;20040;-53
2023/06/22 07:28:44;;;;;;;11.00;9.55;;;;;;;22.14;100.00;101763.66;5010947;28;20034;-54
2023/06/22 07:31:10;;;;;;;10.27;9.00;;;;;;;21.86;100.00;101702.94;4993116;28;20671;-52
2023/06/22 07:33:35;;;;;;;11.48;9.82;;;;;;;22.06;100.00;101701.66;5011048;28;20042;-51
2023/06/22 07:36:02;;;;;;;11.45;9.20;;;;;;;22.53;100.00;101768.22;5010870;28;20054;-50
2023/06/22 07:38:28;;;;;;;9.23;8.32;;;;;;;22.49;100.00;101780.97;5009584;28;20068;-49
2023/06/22 07:40:53;;;;;;;10.95;8.93;;;;;;;22.59;100.00;101765.94;5010256;28;20117;-48
2023/06/22 07:43:19;;;;;;;9.18;8.25;;;;;;;22.83;100.00;101753.56;5010744;28;20033;-53
2023/06/22 07:45:54;;;;;;;10.00;8.57;;;;;;;22.80;100.00;101753.78;5010975;28;20049;-49
2023/06/22 07:48:22;;;;;;;9.45;8.07;;;;;;;23.28;100.00;101772.81;5009657;28;20064;-49
2023/06/22 07:50:48;;;;;;;8.88;8.07;;;;;;;23.06;100.00;101690.19;4993276;28;20096;-49
2023/06/22 07:53:13;;;;;;;7.93;6.75;;;;;;;23.37;100.00;101715.75;4992164;28;20038;-50
2023/06/22 07:55:39;;;;;;;10.02;9.10;;;;;;;24.02;100.00;101719.84;5009281;28;20034;-49
2023/06/22 07:58:04;;;;;;;10.90;9.70;;;;;;;24.57;100.00;101743.50;5004109;28;20042;-49
2023/06/22 08:00:29;;;;;;;10.80;9.15;;;;;;;24.78;100.00;101718.59;4996070;28;20034;-50
2023/06/22 08:02:55;;;;;;;10.93;9.90;;;;;;;24.77;100.00;101743.78;5005394;28;20056;-50
2023/06/22 08:05:20;;;;;;;9.80;8.57;;;;;;;24.86;100.00;101751.19;5009008;28;20072;-48
2023/06/22 08:07:45;;;;;;;9.25;8.32;;;;;;;25.20;100.00;101769.09;5010215;28;20033;-48
2023/06/22 08:10:12;;;;;;;10.27;8.63;;;;;;;25.18;100.00;101763.00;5009696;28;20077;-48
2023/06/22 08:12:40;;;;;;;10.00;9.00;;;;;;;25.31;100.00;101761.03;5008673;28;20041;-50
2023/06/22 08:15:07;;;;;;;8.82;8.02;;;;;;;25.56;100.00;101754.56;4990506;28;20062;-51
2023/06/22 08:17:33;;;;;;;8.82;7.80;;;;;;;25.59;100.00;101762.41;5011238;28;20037;-50
2023/06/22 08:19:58;;;;;;;8.95;8.18;;;;;;;25.56;100.00;101741.09;4993239;28;20040;-52
2023/06/22 08:22:23;;;;;;;7.47;6.53;;;;;;;26.16;100.00;101738.78;4993267;28;20141;-50
2023/06/22 08:24:49;;;;;;;7.47;6.78;;;;;;;26.48;100.00;101757.66;5010420;28;20400;-52
2023/06/22 08:27:20;;;;;;;6.90;6.30;;;;;;;27.10;100.00;101748.72;5010240;28;20149;-49
2023/06/22 08:29:46;;;;;;;7.50;6.75;;;;;;;27.02;100.00;101746.72;4976756;28;20369;-50
2023/06/22 08:32:12;;;;;;;4.63;4.22;;;;;;;27.19;100.00;101746.09;5010174;28;20034;-52
2023/06/22 08:34:41;;;;;;;6.72;3.85;;;;;;;27.23;100.00;101769.13;5008898;28;20501;-50
2023/06/22 08:37:10;;;;;;;3.67;3.27;;;;;;;27.08;100.00;101770.50;5008989;28;20038;-49
2023/06/22 08:39:35;;;;;;;3.25;2.95;;;;;;;27.11;100.00;101726.13;4992817;28;20065;-49
2023/06/22 08:42:00;;;;;;;7.28;3.08;;;;;;;27.19;100.00;101769.53;5009973;28;20084;-52
2023/06/22 08:44:26;;;;;;;3.72;3.40;;;;;;;27.29;100.00;101765.88;5010443;28;20061;-50
2023/06/22 08:46:51;;;;;;;6.97;6.00;;;;;;;26.55;100.00;101695.91;5009297;28;20440;-50
2023/06/22 08:49:17;;;;;;;6.43;4.88;;;;;;;27.15;100.00;101749.16;5010645;28;20030;-51
2023/06/22 08:51:44;;;;;;;9.13;6.60;;;;;;;27.34;100.00;101750.16;5005119;28;20409;-53
2023/06/22 08:54:10;;;;;;;9.00;8.15;;;;;;;27.55;100.00;101743.84;5009625;28;20045;-49
2023/06/22 08:56:35;;;;;;;8.32;7.03;;;;;;;27.62;100.00;101680.94;4997685;28;20026;-53
2023/06/22 08:59:00;;;;;;;10.88;9.80;;;;;;;27.00;100.00;101699.19;5015512;28;20124;-50
2023/06/22 09:01:26;;;;;;;10.73;9.35;;;;;;;27.24;100.00;101743.81;5015726;28;20062;-54
2023/06/22 09:03:55;;;;;;;11.48;9.07;;;;;;;27.44;100.00;101733.97;5010421;28;20030;-49
2023/06/22 09:06:21;;;;;;;10.85;8.60;;;;;;;27.54;100.00;101725.91;5015008;28;20485;-50
2023/06/22 09:08:47;;;;;;;10.05;8.73;;;;;;;27.85;100.00;101735.66;5015901;28;20041;-48
2023/06/22 09:11:13;;;;;;;10.52;9.15;;;;;;;28.11;100.00;101727.91;5013150;28;20545;-51
2023/06/22 09:13:38;;;;;;;11.38;8.23;;;;;;;28.21;100.00;101729.63;5004465;28;20149;-54
2023/06/22 09:16:03;;;;;;;10.20;9.00;;;;;;;28.30;100.00;101723.34;5010950;28;20073;-53
2023/06/22 09:18:29;;;;;;;9.68;8.77;;;;;;;27.67;100.00;101724.66;5014828;28;20401;-53
2023/06/22 09:20:54;;;;;;;8.98;8.07;;;;;;;27.24;100.00;101675.38;4981440;28;20121;-50
2023/06/22 09:23:19;;;;;;;9.50;8.60;;;;;;;26.47;100.00;101655.22;5014809;28;20084;-53
2023/06/22 09:25:47;;;;;;;12.93;9.68;;;;;;;26.17;100.00;101653.28;4997815;28;20065;-51
2023/06/22 09:28:12;;;;;;;9.02;8.13;;;;;;;26.42;100.00;101669.09;4998028;28;20041;-49
2023/06/22 09:30:37;;;;;;;10.48;7.40;;;;;;;27.08;100.00;101696.66;5008809;28;20156;-53
2023/06/22 09:33:03;;;;;;;9.02;7.32;;;;;;;26.85;100.00;101662.72;5015187;28;20394;-53
2023/06/22 09:35:28;;;;;;;8.60;7.80;;;;;;;26.70;100.00;101673.84;5014967;28;20053;-56
2023/06/22 09:37:54;;;;;;;8.93;7.05;;;;;;;26.91;100.00;101730.59;5014751;28;20533;-49
2023/06/22 09:40:20;;;;;;;7.55;5.85;;;;;;;27.19;100.00;101718.19;5014962;28;20037;-51
2023/06/22 09:42:45;;;;;;;7.63;6.10;;;;;;;26.98;100.00;101672.28;5014675;28;20030;-52
2023/06/22 09:45:11;;;;;;;7.13;6.45;;;;;;;26.49;100.00;101721.59;5015064;28;20042;-53
2023/06/22 09:47:36;;;;;;;7.45;6.70;;;;;;;26.32;100.00;101699.69;5013585;28;20462;-52
2023/06/22 09:50:01;;;;;;;7.28;6.38;;;;;;;26.25;100.00;101651.63;4995457;28;20050;-51
2023/06/22 09:52:27;;;;;;;9.75;6.32;;;;;;;25.57;100.00;101651.13;5014258;28;20514;-49
2023/06/22 09:54:52;;;;;;;6.05;5.32;;;;;;;25.58;100.00;101704.94;5014468;28;20034;-51
2023/06/22 09:57:17;;;;;;;5.07;3.97;;;;;;;25.60;100.00;101697.56;5014673;28;20056;-51
2023/06/22 09:59:43;;;;;;;7.13;3.92;;;;;;;25.46;100.00;101654.69;5012352;28;20049;-51
2023/06/22 10:02:08;;;;;;;6.38;4.60;;;;;;;25.45;100.00;101661.03;4994726;28;20032;-49
2023/06/22 10:04:34;;;;;;;5.93;5.25;;;;;;;25.85;100.00;101701.81;5013040;28;20030;-52
2023/06/22 10:07:00;;;;;;;5.53;5.03;;;;;;;25.55;100.00;101631.53;4996649;28;20038;-55
2023/06/22 10:09:25;;;;;;;8.60;4.50;;;;;;;25.84;100.00;101693.84;5034099;28;20064;-53
2023/06/22 10:11:51;;;;;;;6.68;5.55;;;;;;;25.80;100.00;101705.88;5033656;28;20112;-51
2023/06/22 10:14:16;;;;;;;6.00;4.50;;;;;;;25.70;100.00;101635.66;5025393;28;20073;-50
2023/06/22 10:16:42;;;;;;;6.13;3.00;;;;;;;26.35;100.00;101721.03;5033589;28;20033;-52
2023/06/22 10:19:07;;;;;;;4.57;3.55;;;;;;;26.05;100.00;101657.84;5033543;28;20099;-52
2023/06/22 10:21:33;;;;;;;4.07;3.67;;;;;;;26.43;100.00;101715.84;5033392;28;20029;-52
2023/06/22 10:24:01;;;;;;;6.88;5.30;;;;;;;25.81;100.00;101651.78;5033806;28;20048;-51
2023/06/22 10:26:28;;;;;;;7.75;7.03;;;;;;;26.11;100.00;101702.34;5033325;28;20320;-48
2023/06/22 10:28:54;;;;;;;7.63;6.85;;;;;;;25.83;100.00;101643.59;5016578;28;20037;-48
2023/06/22 10:31:19;;;;;;;8.77;7.82;;;;;;;26.16;100.00;101689.34;5033804;28;20554;-48
2023/06/22 10:33:45;;;;;;;11.02;9.85;;;;;;;26.08;100.00;101687.25;5033682;28;20037;-49
2023/06/22 10:36:11;;;;;;;10.60;9.43;;;;;;;25.64;100.00;101690.94;5033317;28;20049;-48
2023/06/22 10:38:36;;;;;;;11.45;10.45;;;;;;;25.29;100.00;101671.38;5032196;28;20476;-53
2023/06/22 10:41:02;;;;;;;10.50;9.40;;;;;;;25.12;100.00;101696.97;5016227;28;20072;-51
2023/06/22 10:43:27;;;;;;;10.75;8.75;;;;;;;24.60;100.00;101605.13;5033792;28;20125;-51
2023/06/22 10:45:53;;;;;;;11.80;8.27;;;;;;;24.75;100.00;101635.34;5015797;28;20037;-49
2023/06/22 10:48:18;;;;;;;10.90;9.77;;;;;;;24.69;100.00;101612.47;5032707;28;20029;-51
2023/06/22 10:50:43;;;;;;;11.20;10.20;;;;;;;24.61;100.00;101628.34;5032740;28;20056;-53
2023/06/22 10:53:09;;;;;;;16.77;10.82;;;;;;;24.48;100.00;101616.84;5033188;28;20542;-48
2023/06/22 10:55:34;;;;;;;12.02;10.60;;;;;;;24.80;100.00;101685.22;5033229;28;20029;-48
2023/06/22 10:57:59;;;;;;;11.73;10.52;;;;;;;24.89;100.00;101679.09;5033174;28;20432;-51
2023/06/22 11:00:25;;;;;;;13.00;11.80;;;;;;;24.81;100.00;101676.13;5033015;28;20159;-49